Mill Run, PA (15464)

5:49 PM EST on March 06, 2015 (GMT -0500)
KPACONFL2 | Change Station
CLOSE
Current Station
Personal Weather Station
Location: Confluence, PA
Elevation: 1336 ft
Nearby Weather Stations

Elev 1336 ft 39.81 °N, 79.36 °W | Updated 24 seconds ago

Clear
Clear
24.9 °F
Feels Like 25 °F
N
2.0
Wind Variable Wind from SSW
Gusts 7.0 mph

Today
High -- | Low -- °F
--% Chance of Precip.
Yesterday
High -- | Low -- °F
Precip. -- in
6:43 AM 6:14 PM
Full, 99% visible
Pressure 30.38 in
Visibility 10.0 miles
Clouds Mostly Cloudy 15000 ft
Windchill 25 °F
Dew Point 15 °F
Humidity 66%
Rainfall in
Snow Depth Not available.
UV 1 out of 12
Pollen .30 out of 12
Air Quality Not available.
Flu Activity Not available.
METAR KLBE 062145Z 22006KT 10SM BKN150 M06/M13 A3038

More Conditions Fewer Conditions

Pressure 30.38 in
Visibility 10.0 miles
Clouds Mostly Cloudy 15000 ft
Windchill 25 °F
Dew Point 15 °F
Humidity 66%
Rainfall in
Snow Depth Not available.
UV 1 out of 12
Pollen .30 out of 12
Air Quality Not available.
Flu Activity Not available.
METAR KLBE 062145Z 22006KT 10SM BKN150 M06/M13 A3038

More Conditions Fewer Conditions

10-Day Weather Forecast

Almanac

Astronomy

Mar. 06, 2015 Rise Set
Actual Time
Civil Twilight
Nautical Twilight
Astronomical Twilight
Moon
Length of Visible Light
Length of Day
Tomorrow will be .
, % of the Moon is Illuminated

Today's Extremes

State Highs State Lows

Community

WunderPhotos

Upload Photos

1,803,431 photos uploaded!

WunderBlogs® & News

Nearby

Air Quality

  Air Quality AQ Index Pollutant
Not available.

Snow Depth

Station Depth Elevation

Earthquake Activity

City Distance Mag. Time & Date
Minimum magnitude displayed is 2.5.

Coastal Water Temperatures

Place Temperature

Nearby Weather Stations